createdAt,value
2019-05-06T00:04:34.112Z,6.18
2019-05-06T00:09:40.627Z,5.41
2019-05-06T00:14:47.581Z,5.57
2019-05-06T00:19:56.931Z,5.91
2019-05-06T00:25:05.392Z,5.84
2019-05-06T00:30:11.896Z,5.66
2019-05-06T00:35:18.453Z,5.95
2019-05-06T00:40:24.839Z,5.77
2019-05-06T00:45:31.240Z,5.91
2019-05-06T00:50:38.070Z,6.40
2019-05-06T00:55:44.636Z,6.07
2019-05-06T01:00:53.282Z,5.96
2019-05-06T01:06:00.123Z,6.13
2019-05-06T01:11:06.741Z,5.84
2019-05-06T01:16:13.253Z,5.89
2019-05-06T01:21:20.092Z,5.71
2019-05-06T01:26:26.378Z,6.52
2019-05-06T01:31:40.565Z,5.76
2019-05-06T01:36:38.989Z,5.74
2019-05-06T01:41:45.267Z,6.11
2019-05-06T01:46:51.793Z,6.23
2019-05-06T01:51:58.209Z,6.80
2019-05-06T01:57:04.757Z,6.39
2019-05-06T02:02:11.268Z,6.24
2019-05-06T02:07:17.626Z,5.91
2019-05-06T02:12:24.559Z,6.32
2019-05-06T02:17:31.153Z,6.20
2019-05-06T02:22:37.404Z,6.70
2019-05-06T02:27:44.531Z,7.56
2019-05-06T02:32:51.009Z,6.57
2019-05-06T02:37:57.567Z,6.20
2019-05-06T02:43:03.841Z,6.62
2019-05-06T02:48:10.190Z,6.83
2019-05-06T02:53:16.467Z,6.83
2019-05-06T02:58:23.780Z,6.98
2019-05-06T03:03:33.365Z,6.82
2019-05-06T03:08:43.203Z,6.89
2019-05-06T03:13:50.172Z,6.89
2019-05-06T03:18:56.455Z,7.13
2019-05-06T03:24:04.019Z,7.59
2019-05-06T03:29:03.702Z,7.65
2019-05-06T03:34:36.521Z,7.79
2019-05-06T03:39:16.316Z,7.72
2019-05-06T03:44:24.096Z,7.81
2019-05-06T03:49:33.737Z,7.97
2019-05-06T03:54:45.061Z,8.10
2019-05-06T03:59:43.565Z,8.23
2019-05-06T04:04:56.038Z,8.41
2019-05-06T04:09:53.794Z,8.77
2019-05-06T04:15:03.531Z,8.54
2019-05-06T04:20:03.769Z,8.47
2019-05-06T04:25:03.606Z,8.67
2019-05-06T04:30:13.278Z,8.30
2019-05-06T04:35:22.744Z,8.37
2019-05-06T04:40:32.936Z,8.12
2019-05-06T04:45:29.384Z,8.14
2019-05-06T04:50:35.636Z,8.49
2019-05-06T04:55:43.595Z,8.88
2019-05-06T05:00:53.151Z,8.12
2019-05-06T05:06:01.996Z,7.95
2019-05-06T05:11:03.568Z,7.73
2019-05-06T05:16:10.099Z,8.13
2019-05-06T05:21:16.410Z,7.27
2019-05-06T05:26:22.787Z,7.56
2019-05-06T05:31:32.946Z,7.88
2019-05-06T05:36:29.563Z,7.45
2019-05-06T05:41:36.110Z,6.97
2019-05-06T05:46:43.880Z,7.10
2019-05-06T05:51:51.983Z,7.09
2019-05-06T05:56:58.440Z,6.07
2019-05-06T06:02:05.441Z,6.30
2019-05-06T06:07:12.194Z,6.17
2019-05-06T06:12:18.589Z,6.35
2019-05-06T06:17:24.942Z,6.04
2019-05-06T06:22:33.087Z,6.39
2019-05-06T06:32:49.001Z,5.79
2019-05-06T06:37:55.347Z,6.12
2019-05-06T06:43:02.220Z,5.67
2019-05-06T06:48:08.731Z,6.19
2019-05-06T06:53:15.091Z,5.97
2019-05-06T06:58:22.743Z,6.08
2019-05-06T07:03:29.400Z,5.79
2019-05-06T07:08:37.671Z,5.74
2019-05-06T07:13:44.340Z,5.14
2019-05-06T07:18:52.618Z,5.48
2019-05-06T07:23:59.342Z,4.97
2019-05-06T07:29:15.280Z,4.77
2019-05-06T07:34:12.517Z,4.16
2019-05-06T07:39:18.605Z,4.55
2019-05-06T07:44:24.983Z,4.15
2019-05-06T07:49:32.964Z,4.27
2019-05-06T07:54:39.610Z,4.11
2019-05-06T07:59:45.768Z,4.39
2019-05-06T08:04:53.257Z,4.28
2019-05-06T08:10:13.573Z,4.45
2019-05-06T08:15:04.516Z,4.09
2019-05-06T08:20:02.491Z,4.20
2019-05-06T08:25:09.120Z,4.20
2019-05-06T08:30:16.879Z,4.10
2019-05-06T08:35:23.228Z,3.80
2019-05-06T08:40:29.474Z,3.71
2019-05-06T08:45:35.957Z,4.59
2019-05-06T08:50:42.594Z,3.31
2019-05-06T08:55:49.524Z,3.05
2019-05-06T09:00:57.618Z,2.82
2019-05-06T09:06:07.470Z,2.94
2019-05-06T09:11:14.016Z,2.60
2019-05-06T09:16:22.333Z,3.06
2019-05-06T09:21:34.953Z,3.26
2019-05-06T09:26:32.393Z,3.56
2019-05-06T09:31:39.203Z,3.94
2019-05-06T09:36:51.701Z,3.67
2019-05-06T09:41:57.813Z,2.64
2019-05-06T09:46:54.684Z,2.31
2019-05-06T09:52:02.527Z,2.20
2019-05-06T09:57:08.981Z,2.58
2019-05-06T10:02:15.150Z,3.00
2019-05-06T10:07:22.591Z,3.02
2019-05-06T10:12:28.943Z,2.98
2019-05-06T10:17:35.527Z,2.01
2019-05-06T10:22:43.093Z,1.74
2019-05-06T10:27:50.037Z,1.58
2019-05-06T10:32:56.429Z,1.48
2019-05-06T10:38:03.009Z,1.34
2019-05-06T10:43:09.415Z,1.63
2019-05-06T10:48:15.927Z,1.63
2019-05-06T10:53:23.290Z,1.74
2019-05-06T10:58:32.506Z,1.81
2019-05-06T11:03:39.359Z,1.82
2019-05-06T11:08:45.949Z,2.34
2019-05-06T11:13:52.270Z,2.47
2019-05-06T11:18:58.804Z,2.40
2019-05-06T11:24:06.313Z,2.25
2019-05-06T11:29:12.801Z,1.95
2019-05-06T11:34:19.198Z,1.51
2019-05-06T11:39:25.677Z,1.35
2019-05-06T11:44:32.378Z,1.06
2019-05-06T11:49:39.095Z,1.15
2019-05-06T11:54:45.931Z,1.37
2019-05-06T11:59:52.950Z,1.63
2019-05-06T12:04:59.440Z,2.01
2019-05-06T12:10:06.038Z,2.26
2019-05-06T12:15:12.935Z,1.53
2019-05-06T12:20:22.098Z,1.70
2019-05-06T12:25:28.873Z,1.85
2019-05-06T12:30:35.365Z,1.57
2019-05-06T12:35:42.769Z,1.56
2019-05-06T12:40:49.376Z,1.89
2019-05-06T12:45:55.843Z,1.95
2019-05-06T12:51:03.175Z,2.30
2019-05-06T12:56:09.542Z,2.12
2019-05-06T13:01:16.981Z,2.37
2019-05-06T13:06:26.339Z,2.28
2019-05-06T13:11:33.287Z,2.18
2019-05-06T13:16:39.580Z,2.37
2019-05-06T13:21:45.970Z,2.95
2019-05-06T13:26:52.890Z,2.39
2019-05-06T13:31:59.500Z,2.62
2019-05-06T13:37:05.800Z,2.51
2019-05-06T13:42:13.231Z,2.47
2019-05-06T13:47:22.400Z,2.35
2019-05-06T13:52:29.492Z,2.63
2019-05-06T13:57:39.025Z,2.40
2019-05-06T14:02:36.066Z,2.23
2019-05-06T14:07:43.264Z,2.75
2019-05-06T14:12:49.870Z,3.57
2019-05-06T14:17:56.144Z,2.48
2019-05-06T14:23:02.656Z,2.67
2019-05-06T14:28:09.007Z,2.59
2019-05-06T14:33:15.730Z,2.71
2019-05-06T14:38:24.534Z,2.97
2019-05-06T14:43:32.368Z,2.54
2019-05-06T14:48:39.044Z,2.95
2019-05-06T14:53:45.646Z,4.06
2019-05-06T14:58:52.047Z,2.29
2019-05-06T15:03:58.729Z,2.64
2019-05-06T15:09:05.524Z,2.78
2019-05-06T15:14:13.056Z,2.35
2019-05-06T15:19:22.583Z,2.54
2019-05-06T15:24:29.448Z,2.33
2019-05-06T15:29:35.726Z,2.56
2019-05-06T15:34:42.336Z,2.16
2019-05-06T15:39:49.535Z,2.18
2019-05-06T15:44:56.048Z,2.03
2019-05-06T15:50:02.936Z,2.33
2019-05-06T15:55:09.381Z,2.39
2019-05-06T16:00:16.030Z,2.20
2019-05-06T16:05:26.472Z,2.37
2019-05-06T16:10:23.547Z,2.35
2019-05-06T16:15:33.311Z,2.25
2019-05-06T16:20:33.177Z,2.47
2019-05-06T16:25:39.915Z,3.09
2019-05-06T16:30:46.739Z,4.16
2019-05-06T16:35:53.609Z,2.95
2019-05-06T16:41:10.286Z,2.90
2019-05-06T16:46:07.013Z,3.18
2019-05-06T16:51:15.533Z,3.82
2019-05-06T16:56:22.314Z,4.06
2019-05-06T17:01:29.914Z,3.51
2019-05-06T17:06:37.025Z,3.54
2019-05-06T17:11:43.747Z,3.61
2019-05-06T17:16:52.660Z,3.11
2019-05-06T17:21:59.795Z,3.85
2019-05-06T17:27:06.334Z,2.76
2019-05-06T17:32:12.627Z,2.64
2019-05-06T17:37:18.902Z,2.38
2019-05-06T17:42:25.402Z,2.55
2019-05-06T17:47:32.152Z,2.91
2019-05-06T17:52:38.543Z,2.48
2019-05-06T17:57:45.007Z,2.85
2019-05-06T18:02:52.676Z,2.44
2019-05-06T18:07:59.658Z,2.86
2019-05-06T18:13:07.421Z,2.56
2019-05-06T18:18:14.049Z,2.88
2019-05-06T18:23:22.276Z,4.38
2019-05-06T18:28:28.524Z,4.82
2019-05-06T18:33:34.842Z,3.27
2019-05-06T18:38:42.092Z,2.89
2019-05-06T18:43:49.168Z,2.88
2019-05-06T18:48:55.544Z,3.65
2019-05-06T18:54:03.087Z,3.05
2019-05-06T18:59:12.035Z,2.69
2019-05-06T19:04:18.868Z,2.72
2019-05-06T19:09:25.378Z,3.38
2019-05-06T19:14:32.963Z,2.83
2019-05-06T19:19:39.937Z,2.59
2019-05-06T19:24:46.873Z,3.28
2019-05-06T19:29:54.670Z,3.32
2019-05-06T19:35:02.696Z,6.58
2019-05-06T19:40:09.503Z,4.23
2019-05-06T19:45:15.944Z,4.37
2019-05-06T19:50:25.805Z,5.44
2019-05-06T19:55:23.121Z,6.13
2019-05-06T20:00:32.478Z,3.99
2019-05-06T20:05:39.387Z,4.31
2019-05-06T20:10:47.273Z,3.92
2019-05-06T20:15:53.454Z,4.25
2019-05-06T20:20:59.671Z,4.23
2019-05-06T20:26:06.473Z,4.20
2019-05-06T20:31:12.940Z,5.84
2019-05-06T20:36:19.801Z,4.74
2019-05-06T20:41:26.749Z,4.83
2019-05-06T20:46:33.120Z,4.82
2019-05-06T20:51:39.565Z,4.41
2019-05-06T20:56:45.898Z,4.79
2019-05-06T21:01:52.173Z,3.94
2019-05-06T21:06:58.563Z,3.12
2019-05-06T21:12:04.845Z,2.93
2019-05-06T21:17:12.436Z,2.81
2019-05-06T21:22:18.903Z,2.88
2019-05-06T21:27:25.048Z,2.77
2019-05-06T21:32:32.992Z,3.24
2019-05-06T21:37:39.224Z,3.12
2019-05-06T21:42:45.504Z,3.08
2019-05-06T21:47:53.033Z,3.65
2019-05-06T21:53:02.527Z,3.40
2019-05-06T21:58:09.534Z,2.95
2019-05-06T22:03:16.672Z,2.63
2019-05-06T22:08:23.734Z,3.05
2019-05-06T22:13:32.547Z,3.27
2019-05-06T22:18:40.017Z,3.63
2019-05-06T22:23:46.153Z,3.71
2019-05-06T22:28:52.638Z,3.74
2019-05-06T22:33:59.091Z,3.50
2019-05-06T22:39:05.380Z,3.57
2019-05-06T22:44:13.945Z,3.44
2019-05-06T22:49:22.518Z,3.64
2019-05-06T22:54:28.984Z,4.16
2019-05-06T22:59:35.281Z,4.09
2019-05-06T23:04:43.104Z,4.29
2019-05-06T23:09:52.023Z,4.49
2019-05-06T23:14:58.632Z,4.14
2019-05-06T23:20:04.908Z,4.42
2019-05-06T23:25:12.537Z,4.08
2019-05-06T23:30:18.991Z,4.33
2019-05-06T23:35:25.418Z,4.57
2019-05-06T23:40:33.125Z,4.01
2019-05-06T23:45:39.585Z,4.60
2019-05-06T23:50:45.883Z,4.35
2019-05-06T23:55:52.249Z,4.41
